sensor_id;sensor_type;location;lat;lon;timestamp;P1;durP1;ratioP1;P2;durP2;ratioP2
20423;SDS011;10371;49.042;8.002;2024-03-07T00:00:44;34.77;;;28.30;;
20423;SDS011;10371;49.042;8.002;2024-03-07T00:01:45;33.73;;;27.90;;
20423;SDS011;10371;49.042;8.002;2024-03-07T00:02:46;33.37;;;28.00;;
20423;SDS011;10371;49.042;8.002;2024-03-07T00:03:51;33.07;;;27.70;;
20423;SDS011;10371;49.042;8.002;2024-03-07T00:04:51;36.67;;;29.00;;
20423;SDS011;10371;49.042;8.002;2024-03-07T00:05:52;33.93;;;29.17;;
20423;SDS011;10371;49.042;8.002;2024-03-07T00:06:52;33.30;;;28.23;;
20423;SDS011;10371;49.042;8.002;2024-03-07T00:07:53;33.73;;;29.17;;
20423;SDS011;10371;49.042;8.002;2024-03-07T00:08:54;32.57;;;28.73;;
20423;SDS011;10371;49.042;8.002;2024-03-07T00:09:55;37.23;;;29.77;;
20423;SDS011;10371;49.042;8.002;2024-03-07T00:10:56;37.40;;;29.80;;
20423;SDS011;10371;49.042;8.002;2024-03-07T00:11:56;35.40;;;29.23;;
20423;SDS011;10371;49.042;8.002;2024-03-07T00:12:56;35.80;;;29.37;;
20423;SDS011;10371;49.042;8.002;2024-03-07T00:13:57;35.87;;;29.13;;
20423;SDS011;10371;49.042;8.002;2024-03-07T00:14:57;34.57;;;29.43;;
20423;SDS011;10371;49.042;8.002;2024-03-07T00:15:57;35.17;;;29.90;;
20423;SDS011;10371;49.042;8.002;2024-03-07T00:16:58;33.73;;;29.27;;
20423;SDS011;10371;49.042;8.002;2024-03-07T00:17:59;36.53;;;30.43;;
20423;SDS011;10371;49.042;8.002;2024-03-07T00:19:00;33.10;;;29.33;;
20423;SDS011;10371;49.042;8.002;2024-03-07T00:20:01;36.23;;;29.33;;
20423;SDS011;10371;49.042;8.002;2024-03-07T00:21:03;34.53;;;29.97;;
20423;SDS011;10371;49.042;8.002;2024-03-07T00:22:04;36.93;;;30.63;;
20423;SDS011;10371;49.042;8.002;2024-03-07T00:23:04;35.90;;;29.17;;
20423;SDS011;10371;49.042;8.002;2024-03-07T00:24:04;35.70;;;29.60;;
20423;SDS011;10371;49.042;8.002;2024-03-07T00:25:05;32.30;;;28.67;;
20423;SDS011;10371;49.042;8.002;2024-03-07T00:26:05;35.30;;;30.37;;
20423;SDS011;10371;49.042;8.002;2024-03-07T00:27:06;38.27;;;30.70;;
20423;SDS011;10371;49.042;8.002;2024-03-07T00:28:07;33.50;;;28.60;;
20423;SDS011;10371;49.042;8.002;2024-03-07T00:29:07;37.30;;;31.60;;
20423;SDS011;10371;49.042;8.002;2024-03-07T00:30:07;37.97;;;30.23;;
20423;SDS011;10371;49.042;8.002;2024-03-07T00:31:13;36.23;;;30.23;;
20423;SDS011;10371;49.042;8.002;2024-03-07T00:32:13;37.93;;;31.17;;
20423;SDS011;10371;49.042;8.002;2024-03-07T00:33:14;36.27;;;30.17;;
20423;SDS011;10371;49.042;8.002;2024-03-07T00:34:14;36.87;;;30.67;;
20423;SDS011;10371;49.042;8.002;2024-03-07T00:35:16;36.57;;;31.20;;
20423;SDS011;10371;49.042;8.002;2024-03-07T00:36:16;38.50;;;30.93;;
20423;SDS011;10371;49.042;8.002;2024-03-07T00:37:17;35.60;;;30.93;;
20423;SDS011;10371;49.042;8.002;2024-03-07T00:38:17;33.40;;;29.47;;
20423;SDS011;10371;49.042;8.002;2024-03-07T00:39:18;37.03;;;30.00;;
20423;SDS011;10371;49.042;8.002;2024-03-07T00:40:19;34.80;;;30.20;;
20423;SDS011;10371;49.042;8.002;2024-03-07T00:41:20;36.47;;;31.20;;
20423;SDS011;10371;49.042;8.002;2024-03-07T00:42:20;39.37;;;33.23;;
20423;SDS011;10371;49.042;8.002;2024-03-07T00:43:22;37.40;;;33.27;;
20423;SDS011;10371;49.042;8.002;2024-03-07T00:44:22;37.87;;;31.70;;
20423;SDS011;10371;49.042;8.002;2024-03-07T00:45:22;39.00;;;32.00;;
20423;SDS011;10371;49.042;8.002;2024-03-07T00:46:23;38.23;;;32.27;;
20423;SDS011;10371;49.042;8.002;2024-03-07T00:47:23;39.37;;;31.20;;
20423;SDS011;10371;49.042;8.002;2024-03-07T00:48:24;39.37;;;32.30;;
20423;SDS011;10371;49.042;8.002;2024-03-07T00:49:24;36.53;;;31.43;;
20423;SDS011;10371;49.042;8.002;2024-03-07T00:50:25;37.30;;;31.83;;
20423;SDS011;10371;49.042;8.002;2024-03-07T00:51:25;36.60;;;31.43;;
20423;SDS011;10371;49.042;8.002;2024-03-07T00:52:26;38.10;;;33.83;;
20423;SDS011;10371;49.042;8.002;2024-03-07T00:53:26;37.07;;;32.13;;
20423;SDS011;10371;49.042;8.002;2024-03-07T00:54:26;36.40;;;32.03;;
20423;SDS011;10371;49.042;8.002;2024-03-07T00:55:27;37.07;;;30.60;;
20423;SDS011;10371;49.042;8.002;2024-03-07T00:56:27;38.17;;;31.20;;
20423;SDS011;10371;49.042;8.002;2024-03-07T00:57:28;38.30;;;32.33;;
20423;SDS011;10371;49.042;8.002;2024-03-07T00:58:29;37.47;;;30.70;;
20423;SDS011;10371;49.042;8.002;2024-03-07T00:59:31;38.17;;;31.70;;
20423;SDS011;10371;49.042;8.002;2024-03-07T01:00:31;39.40;;;33.13;;
20423;SDS011;10371;49.042;8.002;2024-03-07T01:01:32;36.77;;;31.13;;
20423;SDS011;10371;49.042;8.002;2024-03-07T01:02:37;39.13;;;32.27;;
20423;SDS011;10371;49.042;8.002;2024-03-07T01:03:38;40.37;;;32.50;;
20423;SDS011;10371;49.042;8.002;2024-03-07T01:04:39;39.00;;;32.83;;
20423;SDS011;10371;49.042;8.002;2024-03-07T01:05:39;38.50;;;32.13;;
20423;SDS011;10371;49.042;8.002;2024-03-07T01:06:40;40.07;;;33.10;;
20423;SDS011;10371;49.042;8.002;2024-03-07T01:07:41;38.50;;;32.33;;
20423;SDS011;10371;49.042;8.002;2024-03-07T01:08:42;41.43;;;33.27;;
20423;SDS011;10371;49.042;8.002;2024-03-07T01:09:43;37.43;;;31.87;;
20423;SDS011;10371;49.042;8.002;2024-03-07T01:10:43;40.43;;;32.67;;
20423;SDS011;10371;49.042;8.002;2024-03-07T01:11:43;40.57;;;33.00;;
20423;SDS011;10371;49.042;8.002;2024-03-07T01:12:47;36.50;;;32.37;;
20423;SDS011;10371;49.042;8.002;2024-03-07T01:13:49;38.83;;;32.50;;
20423;SDS011;10371;49.042;8.002;2024-03-07T01:14:50;38.87;;;32.30;;
20423;SDS011;10371;49.042;8.002;2024-03-07T01:15:51;39.07;;;32.63;;
20423;SDS011;10371;49.042;8.002;2024-03-07T01:16:51;40.03;;;33.43;;
20423;SDS011;10371;49.042;8.002;2024-03-07T01:17:51;37.73;;;31.53;;
20423;SDS011;10371;49.042;8.002;2024-03-07T01:18:52;39.03;;;32.87;;
20423;SDS011;10371;49.042;8.002;2024-03-07T01:19:52;37.03;;;30.73;;
20423;SDS011;10371;49.042;8.002;2024-03-07T01:20:52;38.90;;;32.13;;
20423;SDS011;10371;49.042;8.002;2024-03-07T01:21:53;39.43;;;33.23;;
20423;SDS011;10371;49.042;8.002;2024-03-07T01:22:53;43.20;;;32.87;;
20423;SDS011;10371;49.042;8.002;2024-03-07T01:23:53;42.30;;;33.87;;
20423;SDS011;10371;49.042;8.002;2024-03-07T01:24:53;41.07;;;32.60;;
20423;SDS011;10371;49.042;8.002;2024-03-07T01:25:55;39.50;;;33.87;;
20423;SDS011;10371;49.042;8.002;2024-03-07T01:26:58;37.30;;;32.37;;
20423;SDS011;10371;49.042;8.002;2024-03-07T01:28:00;40.67;;;34.13;;
20423;SDS011;10371;49.042;8.002;2024-03-07T01:29:00;40.03;;;33.57;;
20423;SDS011;10371;49.042;8.002;2024-03-07T01:30:01;39.17;;;33.77;;
20423;SDS011;10371;49.042;8.002;2024-03-07T01:31:01;40.87;;;34.10;;
20423;SDS011;10371;49.042;8.002;2024-03-07T01:32:02;41.10;;;33.33;;
20423;SDS011;10371;49.042;8.002;2024-03-07T01:33:03;39.70;;;33.10;;
20423;SDS011;10371;49.042;8.002;2024-03-07T01:34:03;39.67;;;33.37;;
20423;SDS011;10371;49.042;8.002;2024-03-07T01:35:04;39.60;;;32.80;;
20423;SDS011;10371;49.042;8.002;2024-03-07T01:36:07;41.20;;;33.70;;
20423;SDS011;10371;49.042;8.002;2024-03-07T01:37:07;39.57;;;33.40;;
20423;SDS011;10371;49.042;8.002;2024-03-07T01:38:08;44.50;;;35.27;;
20423;SDS011;10371;49.042;8.002;2024-03-07T01:39:10;39.47;;;33.40;;
20423;SDS011;10371;49.042;8.002;2024-03-07T01:40:11;41.03;;;34.33;;
20423;SDS011;10371;49.042;8.002;2024-03-07T01:41:11;42.53;;;34.60;;
20423;SDS011;10371;49.042;8.002;2024-03-07T01:42:12;39.60;;;33.87;;
20423;SDS011;10371;49.042;8.002;2024-03-07T01:43:12;39.00;;;33.60;;
20423;SDS011;10371;49.042;8.002;2024-03-07T01:44:12;40.37;;;33.83;;
20423;SDS011;10371;49.042;8.002;2024-03-07T01:45:13;41.13;;;33.33;;
20423;SDS011;10371;49.042;8.002;2024-03-07T01:46:13;40.40;;;33.93;;
20423;SDS011;10371;49.042;8.002;2024-03-07T01:47:14;38.53;;;32.07;;
20423;SDS011;10371;49.042;8.002;2024-03-07T01:48:17;38.70;;;33.60;;
20423;SDS011;10371;49.042;8.002;2024-03-07T01:49:23;41.00;;;33.67;;
20423;SDS011;10371;49.042;8.002;2024-03-07T01:50:24;39.90;;;34.17;;
20423;SDS011;10371;49.042;8.002;2024-03-07T01:51:24;40.30;;;32.93;;
20423;SDS011;10371;49.042;8.002;2024-03-07T01:52:24;40.17;;;34.30;;
20423;SDS011;10371;49.042;8.002;2024-03-07T01:53:25;40.30;;;34.80;;
20423;SDS011;10371;49.042;8.002;2024-03-07T01:54:27;41.67;;;33.83;;
20423;SDS011;10371;49.042;8.002;2024-03-07T01:55:27;40.23;;;34.17;;
20423;SDS011;10371;49.042;8.002;2024-03-07T01:56:28;40.00;;;33.73;;
20423;SDS011;10371;49.042;8.002;2024-03-07T01:57:29;39.03;;;32.53;;
20423;SDS011;10371;49.042;8.002;2024-03-07T01:58:30;41.27;;;33.20;;
20423;SDS011;10371;49.042;8.002;2024-03-07T01:59:32;36.57;;;30.97;;
20423;SDS011;10371;49.042;8.002;2024-03-07T02:00:33;38.60;;;33.07;;
20423;SDS011;10371;49.042;8.002;2024-03-07T02:01:33;37.53;;;31.87;;
20423;SDS011;10371;49.042;8.002;2024-03-07T02:02:36;37.40;;;31.70;;
20423;SDS011;10371;49.042;8.002;2024-03-07T02:03:36;40.20;;;32.13;;
20423;SDS011;10371;49.042;8.002;2024-03-07T02:04:36;39.07;;;32.63;;
20423;SDS011;10371;49.042;8.002;2024-03-07T02:05:37;38.63;;;31.13;;
20423;SDS011;10371;49.042;8.002;2024-03-07T02:06:37;36.73;;;32.17;;
20423;SDS011;10371;49.042;8.002;2024-03-07T02:07:37;39.53;;;32.73;;
20423;SDS011;10371;49.042;8.002;2024-03-07T02:08:38;37.73;;;31.17;;
20423;SDS011;10371;49.042;8.002;2024-03-07T02:09:39;37.07;;;31.90;;
20423;SDS011;10371;49.042;8.002;2024-03-07T02:10:39;36.50;;;32.30;;
20423;SDS011;10371;49.042;8.002;2024-03-07T02:11:39;36.07;;;31.20;;
20423;SDS011;10371;49.042;8.002;2024-03-07T02:12:40;39.20;;;32.30;;
20423;SDS011;10371;49.042;8.002;2024-03-07T02:13:40;38.33;;;32.07;;
20423;SDS011;10371;49.042;8.002;2024-03-07T02:14:41;36.77;;;32.00;;
20423;SDS011;10371;49.042;8.002;2024-03-07T02:15:41;36.17;;;32.10;;
20423;SDS011;10371;49.042;8.002;2024-03-07T02:16:43;36.43;;;31.60;;
20423;SDS011;10371;49.042;8.002;2024-03-07T02:17:43;35.83;;;31.93;;
20423;SDS011;10371;49.042;8.002;2024-03-07T02:18:44;36.53;;;31.47;;
20423;SDS011;10371;49.042;8.002;2024-03-07T02:19:45;37.20;;;32.23;;
20423;SDS011;10371;49.042;8.002;2024-03-07T02:20:46;36.50;;;31.33;;
20423;SDS011;10371;49.042;8.002;2024-03-07T02:21:47;36.87;;;31.70;;
20423;SDS011;10371;49.042;8.002;2024-03-07T02:22:47;35.30;;;31.10;;
20423;SDS011;10371;49.042;8.002;2024-03-07T02:23:47;35.77;;;31.37;;
20423;SDS011;10371;49.042;8.002;2024-03-07T02:24:47;38.13;;;31.77;;
20423;SDS011;10371;49.042;8.002;2024-03-07T02:25:48;35.53;;;31.73;;
20423;SDS011;10371;49.042;8.002;2024-03-07T02:26:48;38.07;;;32.70;;
20423;SDS011;10371;49.042;8.002;2024-03-07T02:27:48;35.67;;;31.77;;
20423;SDS011;10371;49.042;8.002;2024-03-07T02:28:48;35.90;;;31.10;;
20423;SDS011;10371;49.042;8.002;2024-03-07T02:29:49;37.33;;;31.40;;
20423;SDS011;10371;49.042;8.002;2024-03-07T02:30:51;36.90;;;31.13;;
20423;SDS011;10371;49.042;8.002;2024-03-07T02:31:51;38.33;;;32.53;;
20423;SDS011;10371;49.042;8.002;2024-03-07T02:32:51;36.23;;;32.20;;
20423;SDS011;10371;49.042;8.002;2024-03-07T02:33:54;36.80;;;32.77;;
20423;SDS011;10371;49.042;8.002;2024-03-07T02:34:55;36.87;;;32.70;;
20423;SDS011;10371;49.042;8.002;2024-03-07T02:35:55;39.53;;;32.40;;
20423;SDS011;10371;49.042;8.002;2024-03-07T02:36:55;35.17;;;31.27;;
20423;SDS011;10371;49.042;8.002;2024-03-07T02:37:56;36.13;;;32.20;;
20423;SDS011;10371;49.042;8.002;2024-03-07T02:38:56;35.93;;;32.03;;
20423;SDS011;10371;49.042;8.002;2024-03-07T02:39:56;38.43;;;33.00;;
20423;SDS011;10371;49.042;8.002;2024-03-07T02:40:57;37.33;;;31.53;;
20423;SDS011;10371;49.042;8.002;2024-03-07T02:41:59;36.27;;;32.10;;
20423;SDS011;10371;49.042;8.002;2024-03-07T02:42:59;37.17;;;31.90;;
20423;SDS011;10371;49.042;8.002;2024-03-07T02:44:00;35.33;;;30.47;;
20423;SDS011;10371;49.042;8.002;2024-03-07T02:45:03;36.77;;;31.10;;
20423;SDS011;10371;49.042;8.002;2024-03-07T02:46:04;35.53;;;30.90;;
20423;SDS011;10371;49.042;8.002;2024-03-07T02:47:05;36.57;;;30.23;;
20423;SDS011;10371;49.042;8.002;2024-03-07T02:48:06;37.37;;;31.07;;
20423;SDS011;10371;49.042;8.002;2024-03-07T02:49:09;35.23;;;31.43;;
20423;SDS011;10371;49.042;8.002;2024-03-07T02:50:10;32.57;;;29.17;;
20423;SDS011;10371;49.042;8.002;2024-03-07T02:51:11;37.80;;;30.37;;
20423;SDS011;10371;49.042;8.002;2024-03-07T02:52:14;35.50;;;29.67;;
20423;SDS011;10371;49.042;8.002;2024-03-07T02:53:15;34.97;;;29.37;;
20423;SDS011;10371;49.042;8.002;2024-03-07T02:54:15;32.80;;;29.27;;
20423;SDS011;10371;49.042;8.002;2024-03-07T02:55:15;32.73;;;29.30;;
20423;SDS011;10371;49.042;8.002;2024-03-07T02:56:16;31.70;;;28.30;;
20423;SDS011;10371;49.042;8.002;2024-03-07T02:57:16;34.13;;;30.03;;
20423;SDS011;10371;49.042;8.002;2024-03-07T02:58:16;32.90;;;28.83;;
20423;SDS011;10371;49.042;8.002;2024-03-07T02:59:17;33.83;;;29.20;;
20423;SDS011;10371;49.042;8.002;2024-03-07T03:00:17;31.03;;;27.63;;
20423;SDS011;10371;49.042;8.002;2024-03-07T03:01:26;32.27;;;28.70;;
20423;SDS011;10371;49.042;8.002;2024-03-07T03:02:27;34.80;;;28.93;;
20423;SDS011;10371;49.042;8.002;2024-03-07T03:03:27;34.10;;;28.70;;
20423;SDS011;10371;49.042;8.002;2024-03-07T03:04:27;34.00;;;27.37;;
20423;SDS011;10371;49.042;8.002;2024-03-07T03:05:27;30.17;;;27.07;;
20423;SDS011;10371;49.042;8.002;2024-03-07T03:06:28;30.43;;;27.13;;
20423;SDS011;10371;49.042;8.002;2024-03-07T03:07:28;30.30;;;27.03;;
20423;SDS011;10371;49.042;8.002;2024-03-07T03:08:29;30.87;;;27.57;;
20423;SDS011;10371;49.042;8.002;2024-03-07T03:09:29;29.33;;;26.33;;
20423;SDS011;10371;49.042;8.002;2024-03-07T03:10:30;30.10;;;26.70;;
20423;SDS011;10371;49.042;8.002;2024-03-07T03:11:30;28.37;;;25.37;;
20423;SDS011;10371;49.042;8.002;2024-03-07T03:12:31;30.20;;;26.83;;
20423;SDS011;10371;49.042;8.002;2024-03-07T03:13:31;30.07;;;26.17;;
20423;SDS011;10371;49.042;8.002;2024-03-07T03:14:32;29.53;;;25.43;;
20423;SDS011;10371;49.042;8.002;2024-03-07T03:15:33;30.33;;;25.77;;
20423;SDS011;10371;49.042;8.002;2024-03-07T03:16:33;28.37;;;25.30;;
20423;SDS011;10371;49.042;8.002;2024-03-07T03:17:33;30.13;;;26.30;;
20423;SDS011;10371;49.042;8.002;2024-03-07T03:18:34;31.20;;;26.50;;
20423;SDS011;10371;49.042;8.002;2024-03-07T03:19:34;31.73;;;25.83;;
20423;SDS011;10371;49.042;8.002;2024-03-07T03:20:38;29.40;;;26.30;;
20423;SDS011;10371;49.042;8.002;2024-03-07T03:21:38;29.33;;;26.23;;
20423;SDS011;10371;49.042;8.002;2024-03-07T03:22:40;29.27;;;25.97;;
20423;SDS011;10371;49.042;8.002;2024-03-07T03:23:43;30.33;;;25.83;;
20423;SDS011;10371;49.042;8.002;2024-03-07T03:24:44;29.60;;;25.63;;
20423;SDS011;10371;49.042;8.002;2024-03-07T03:25:44;30.07;;;26.77;;
20423;SDS011;10371;49.042;8.002;2024-03-07T03:26:45;28.27;;;25.10;;
20423;SDS011;10371;49.042;8.002;2024-03-07T03:27:46;29.37;;;25.80;;
20423;SDS011;10371;49.042;8.002;2024-03-07T03:28:47;29.93;;;25.93;;
20423;SDS011;10371;49.042;8.002;2024-03-07T03:29:47;27.60;;;24.67;;
20423;SDS011;10371;49.042;8.002;2024-03-07T03:30:50;30.07;;;26.00;;
20423;SDS011;10371;49.042;8.002;2024-03-07T03:31:51;29.03;;;25.47;;
20423;SDS011;10371;49.042;8.002;2024-03-07T03:32:51;30.43;;;26.77;;
20423;SDS011;10371;49.042;8.002;2024-03-07T03:33:52;28.70;;;25.60;;
20423;SDS011;10371;49.042;8.002;2024-03-07T03:34:52;30.63;;;27.43;;
20423;SDS011;10371;49.042;8.002;2024-03-07T03:35:53;30.27;;;27.00;;
20423;SDS011;10371;49.042;8.002;2024-03-07T03:36:55;29.63;;;26.43;;
20423;SDS011;10371;49.042;8.002;2024-03-07T03:37:55;30.50;;;27.20;;
20423;SDS011;10371;49.042;8.002;2024-03-07T03:38:55;29.77;;;26.57;;
20423;SDS011;10371;49.042;8.002;2024-03-07T03:39:56;29.00;;;25.83;;
20423;SDS011;10371;49.042;8.002;2024-03-07T03:40:56;27.43;;;24.63;;
20423;SDS011;10371;49.042;8.002;2024-03-07T03:41:57;28.07;;;25.10;;
20423;SDS011;10371;49.042;8.002;2024-03-07T03:42:57;29.73;;;26.53;;
20423;SDS011;10371;49.042;8.002;2024-03-07T03:43:57;29.27;;;26.17;;
20423;SDS011;10371;49.042;8.002;2024-03-07T03:44:58;29.03;;;25.93;;
20423;SDS011;10371;49.042;8.002;2024-03-07T03:45:59;30.77;;;26.87;;
20423;SDS011;10371;49.042;8.002;2024-03-07T03:46:59;30.10;;;26.53;;
20423;SDS011;10371;49.042;8.002;2024-03-07T03:48:04;30.53;;;27.23;;
20423;SDS011;10371;49.042;8.002;2024-03-07T03:49:04;30.40;;;27.30;;
20423;SDS011;10371;49.042;8.002;2024-03-07T03:50:06;31.80;;;27.57;;
20423;SDS011;10371;49.042;8.002;2024-03-07T03:51:08;32.03;;;28.53;;
20423;SDS011;10371;49.042;8.002;2024-03-07T03:52:08;30.33;;;27.03;;
20423;SDS011;10371;49.042;8.002;2024-03-07T03:53:09;30.30;;;27.20;;
20423;SDS011;10371;49.042;8.002;2024-03-07T03:54:09;31.40;;;28.10;;
20423;SDS011;10371;49.042;8.002;2024-03-07T03:55:09;31.77;;;28.37;;
20423;SDS011;10371;49.042;8.002;2024-03-07T03:56:11;30.93;;;27.60;;
20423;SDS011;10371;49.042;8.002;2024-03-07T03:57:12;33.90;;;29.57;;
20423;SDS011;10371;49.042;8.002;2024-03-07T03:58:12;31.10;;;27.80;;
20423;SDS011;10371;49.042;8.002;2024-03-07T03:59:12;32.73;;;28.27;;
20423;SDS011;10371;49.042;8.002;2024-03-07T04:00:12;30.83;;;27.53;;
20423;SDS011;10371;49.042;8.002;2024-03-07T04:01:13;30.63;;;27.27;;
20423;SDS011;10371;49.042;8.002;2024-03-07T04:02:14;33.40;;;28.27;;
20423;SDS011;10371;49.042;8.002;2024-03-07T04:03:17;33.87;;;28.87;;
20423;SDS011;10371;49.042;8.002;2024-03-07T04:04:17;32.87;;;28.63;;
20423;SDS011;10371;49.042;8.002;2024-03-07T04:05:18;31.63;;;28.27;;
20423;SDS011;10371;49.042;8.002;2024-03-07T04:06:20;33.83;;;27.87;;
20423;SDS011;10371;49.042;8.002;2024-03-07T04:07:20;32.63;;;27.97;;
20423;SDS011;10371;49.042;8.002;2024-03-07T04:08:21;32.47;;;27.87;;
20423;SDS011;10371;49.042;8.002;2024-03-07T04:09:21;33.00;;;28.60;;
20423;SDS011;10371;49.042;8.002;2024-03-07T04:10:23;32.77;;;29.37;;
20423;SDS011;10371;49.042;8.002;2024-03-07T04:11:23;33.63;;;28.47;;
20423;SDS011;10371;49.042;8.002;2024-03-07T04:12:24;31.27;;;27.90;;
20423;SDS011;10371;49.042;8.002;2024-03-07T04:13:26;31.40;;;27.90;;
20423;SDS011;10371;49.042;8.002;2024-03-07T04:14:27;32.63;;;29.03;;
20423;SDS011;10371;49.042;8.002;2024-03-07T04:15:27;31.77;;;28.47;;
20423;SDS011;10371;49.042;8.002;2024-03-07T04:16:30;30.63;;;27.43;;
20423;SDS011;10371;49.042;8.002;2024-03-07T04:17:31;31.47;;;27.10;;
20423;SDS011;10371;49.042;8.002;2024-03-07T04:18:32;30.53;;;27.07;;
20423;SDS011;10371;49.042;8.002;2024-03-07T04:19:32;31.47;;;27.77;;
20423;SDS011;10371;49.042;8.002;2024-03-07T04:20:33;29.80;;;26.67;;
20423;SDS011;10371;49.042;8.002;2024-03-07T04:21:33;30.30;;;27.10;;
20423;SDS011;10371;49.042;8.002;2024-03-07T04:22:33;30.07;;;26.90;;
20423;SDS011;10371;49.042;8.002;2024-03-07T04:23:34;30.70;;;27.50;;
20423;SDS011;10371;49.042;8.002;2024-03-07T04:24:35;32.33;;;27.47;;
20423;SDS011;10371;49.042;8.002;2024-03-07T04:25:35;30.00;;;27.00;;
20423;SDS011;10371;49.042;8.002;2024-03-07T04:26:36;29.83;;;26.63;;
20423;SDS011;10371;49.042;8.002;2024-03-07T04:27:36;33.53;;;27.83;;
20423;SDS011;10371;49.042;8.002;2024-03-07T04:28:37;32.97;;;27.23;;
20423;SDS011;10371;49.042;8.002;2024-03-07T04:29:37;30.37;;;27.13;;
20423;SDS011;10371;49.042;8.002;2024-03-07T04:30:37;31.10;;;27.90;;
20423;SDS011;10371;49.042;8.002;2024-03-07T04:31:37;30.07;;;26.83;;
20423;SDS011;10371;49.042;8.002;2024-03-07T04:32:38;31.73;;;27.83;;
20423;SDS011;10371;49.042;8.002;2024-03-07T04:33:39;31.60;;;28.30;;
20423;SDS011;10371;49.042;8.002;2024-03-07T04:34:39;31.30;;;27.70;;
20423;SDS011;10371;49.042;8.002;2024-03-07T04:35:40;32.50;;;28.43;;
20423;SDS011;10371;49.042;8.002;2024-03-07T04:36:40;30.03;;;26.80;;
20423;SDS011;10371;49.042;8.002;2024-03-07T04:37:41;30.63;;;27.33;;
20423;SDS011;10371;49.042;8.002;2024-03-07T04:38:41;33.13;;;28.43;;
20423;SDS011;10371;49.042;8.002;2024-03-07T04:39:45;30.53;;;26.10;;
20423;SDS011;10371;49.042;8.002;2024-03-07T04:40:45;30.70;;;27.13;;
20423;SDS011;10371;49.042;8.002;2024-03-07T04:41:46;30.07;;;26.40;;
20423;SDS011;10371;49.042;8.002;2024-03-07T04:42:48;34.93;;;27.77;;
20423;SDS011;10371;49.042;8.002;2024-03-07T04:43:51;30.20;;;27.10;;
20423;SDS011;10371;49.042;8.002;2024-03-07T04:44:52;29.57;;;26.37;;
20423;SDS011;10371;49.042;8.002;2024-03-07T04:45:52;29.77;;;25.63;;
20423;SDS011;10371;49.042;8.002;2024-03-07T04:46:52;30.63;;;27.03;;
20423;SDS011;10371;49.042;8.002;2024-03-07T04:47:56;32.63;;;27.60;;
20423;SDS011;10371;49.042;8.002;2024-03-07T04:48:56;30.03;;;25.93;;
20423;SDS011;10371;49.042;8.002;2024-03-07T04:49:57;29.60;;;26.40;;
20423;SDS011;10371;49.042;8.002;2024-03-07T04:50:58;28.77;;;25.67;;
20423;SDS011;10371;49.042;8.002;2024-03-07T04:51:59;29.03;;;26.00;;
20423;SDS011;10371;49.042;8.002;2024-03-07T04:53:00;28.23;;;25.17;;
20423;SDS011;10371;49.042;8.002;2024-03-07T04:54:00;29.83;;;26.13;;
20423;SDS011;10371;49.042;8.002;2024-03-07T04:55:01;30.53;;;26.53;;
20423;SDS011;10371;49.042;8.002;2024-03-07T04:56:01;29.97;;;26.77;;
20423;SDS011;10371;49.042;8.002;2024-03-07T04:57:01;30.77;;;27.53;;
20423;SDS011;10371;49.042;8.002;2024-03-07T04:58:02;29.33;;;26.13;;
20423;SDS011;10371;49.042;8.002;2024-03-07T04:59:02;28.67;;;25.63;;
20423;SDS011;10371;49.042;8.002;2024-03-07T05:00:03;30.07;;;25.60;;
20423;SDS011;10371;49.042;8.002;2024-03-07T05:01:03;28.10;;;25.10;;
20423;SDS011;10371;49.042;8.002;2024-03-07T05:02:03;28.87;;;25.73;;
20423;SDS011;10371;49.042;8.002;2024-03-07T05:03:04;28.77;;;25.70;;
20423;SDS011;10371;49.042;8.002;2024-03-07T05:04:05;29.37;;;26.27;;
20423;SDS011;10371;49.042;8.002;2024-03-07T05:05:08;29.83;;;25.50;;
20423;SDS011;10371;49.042;8.002;2024-03-07T05:06:09;27.93;;;24.93;;
20423;SDS011;10371;49.042;8.002;2024-03-07T05:07:09;27.03;;;24.13;;
20423;SDS011;10371;49.042;8.002;2024-03-07T05:08:09;27.67;;;24.77;;
20423;SDS011;10371;49.042;8.002;2024-03-07T05:09:10;29.67;;;25.03;;
20423;SDS011;10371;49.042;8.002;2024-03-07T05:10:22;27.87;;;24.87;;
20423;SDS011;10371;49.042;8.002;2024-03-07T05:11:23;29.93;;;25.47;;
20423;SDS011;10371;49.042;8.002;2024-03-07T05:12:23;26.93;;;24.07;;
20423;SDS011;10371;49.042;8.002;2024-03-07T05:13:23;28.60;;;24.67;;
20423;SDS011;10371;49.042;8.002;2024-03-07T05:14:24;28.57;;;25.47;;
20423;SDS011;10371;49.042;8.002;2024-03-07T05:15:27;27.33;;;24.20;;
20423;SDS011;10371;49.042;8.002;2024-03-07T05:16:28;29.33;;;25.50;;
20423;SDS011;10371;49.042;8.002;2024-03-07T05:17:30;28.53;;;24.97;;
20423;SDS011;10371;49.042;8.002;2024-03-07T05:18:33;29.20;;;26.03;;
20423;SDS011;10371;49.042;8.002;2024-03-07T05:19:33;28.57;;;25.57;;
20423;SDS011;10371;49.042;8.002;2024-03-07T05:20:34;28.27;;;25.37;;
20423;SDS011;10371;49.042;8.002;2024-03-07T05:21:34;28.60;;;25.60;;
20423;SDS011;10371;49.042;8.002;2024-03-07T05:22:38;27.47;;;24.57;;
20423;SDS011;10371;49.042;8.002;2024-03-07T05:23:50;28.93;;;25.83;;
20423;SDS011;10371;49.042;8.002;2024-03-07T05:24:50;30.47;;;25.80;;
20423;SDS011;10371;49.042;8.002;2024-03-07T05:25:50;29.10;;;26.00;;
20423;SDS011;10371;49.042;8.002;2024-03-07T05:26:50;30.60;;;26.63;;
20423;SDS011;10371;49.042;8.002;2024-03-07T05:27:52;29.17;;;26.00;;
20423;SDS011;10371;49.042;8.002;2024-03-07T05:28:54;28.63;;;25.67;;
20423;SDS011;10371;49.042;8.002;2024-03-07T05:29:57;28.67;;;24.90;;
20423;SDS011;10371;49.042;8.002;2024-03-07T05:30:57;28.87;;;25.83;;
20423;SDS011;10371;49.042;8.002;2024-03-07T05:32:18;29.73;;;26.63;;
20423;SDS011;10371;49.042;8.002;2024-03-07T05:33:31;30.13;;;26.13;;
20423;SDS011;10371;49.042;8.002;2024-03-07T05:34:31;29.70;;;26.67;;
20423;SDS011;10371;49.042;8.002;2024-03-07T05:35:33;29.67;;;26.43;;
20423;SDS011;10371;49.042;8.002;2024-03-07T05:36:34;29.87;;;25.77;;
20423;SDS011;10371;49.042;8.002;2024-03-07T05:37:44;30.20;;;27.00;;
20423;SDS011;10371;49.042;8.002;2024-03-07T05:38:47;30.03;;;26.83;;
20423;SDS011;10371;49.042;8.002;2024-03-07T05:39:50;29.73;;;26.57;;
20423;SDS011;10371;49.042;8.002;2024-03-07T05:40:51;28.90;;;25.87;;
20423;SDS011;10371;49.042;8.002;2024-03-07T05:41:51;31.40;;;28.03;;
20423;SDS011;10371;49.042;8.002;2024-03-07T05:42:51;29.63;;;26.53;;
20423;SDS011;10371;49.042;8.002;2024-03-07T05:43:53;30.50;;;27.30;;
20423;SDS011;10371;49.042;8.002;2024-03-07T05:44:53;31.87;;;27.23;;
20423;SDS011;10371;49.042;8.002;2024-03-07T05:45:54;31.17;;;27.37;;
20423;SDS011;10371;49.042;8.002;2024-03-07T05:46:54;30.67;;;27.37;;
20423;SDS011;10371;49.042;8.002;2024-03-07T05:47:54;31.50;;;28.10;;
20423;SDS011;10371;49.042;8.002;2024-03-07T05:48:54;28.97;;;25.87;;
20423;SDS011;10371;49.042;8.002;2024-03-07T05:49:57;29.70;;;26.60;;
20423;SDS011;10371;49.042;8.002;2024-03-07T05:50:58;28.57;;;25.50;;
20423;SDS011;10371;49.042;8.002;2024-03-07T05:51:58;31.53;;;26.73;;
20423;SDS011;10371;49.042;8.002;2024-03-07T05:52:59;30.10;;;26.60;;
20423;SDS011;10371;49.042;8.002;2024-03-07T05:53:59;30.20;;;26.37;;
20423;SDS011;10371;49.042;8.002;2024-03-07T05:54:59;30.93;;;27.60;;
20423;SDS011;10371;49.042;8.002;2024-03-07T05:56:00;29.90;;;26.67;;
20423;SDS011;10371;49.042;8.002;2024-03-07T05:57:00;31.37;;;27.97;;